Aérodrome :
LOGIN :

S'inscrire | Disclaimer

   EN    FR    IT 

 










Légende :    VFR   VFR Marginal   IFR   IFR Intensif   IFR Très Intensif
Visi : 
Plafond : 
>= 8 km
>= 3000ft
5 à 8 km
1000 à 3000 ft
1500m à 5 km
500 à 1000 ft
800 à 1500m
200 à 500 ft
< 800m
< 200 ft
Symboles :   Orages  Brouillard  Fortes neiges  Fortes précipitations  Vent > 20 kt
SIGMETs :   Divers  Orages  Givrage  Turbulence  Onde Orograph.  Cendres Volcan.







- Altitude de l'aérodrome : 247 ft
- Code IATA : BLL


EKBI - Billund

DERNIER METAR :
  • 210050Z AUTO 11003KT 4500NDV BR OVC007/// 11/11 Q1010

METARs EXPIRÉS :
  • 210020Z AUTO 15004KT 3800NDV BR OVC007/// 11/11 Q1010
  • 202350Z AUTO 16003KT 4400NDV BR BKN007/// 11/11 Q1010
  • 202320Z AUTO 15004KT 3800NDV BR BKN008/// 12/11 Q1010
  • 202250Z AUTO 13004KT 1700NDV BR FEW005/// 12/12 Q1009
  • 202220Z AUTO 13003KT 2300NDV BR BKN005/// 13/12 Q1009

TAF TAF EKBI
Valide du 21 à 00h jusqu'au 22 à 00h UTC


202257Z 2100/2124 12008KT 2000 BR BKN003
TEMPO 2100/2112 4000 SCT003
BECMG 2112/2114 8000 -RADZ BKN015
BECMG 2117/2119 4000 BR BKN012
Pas de NOTAMs connus pour ce terrain.



MET'MAP, la Météo Aéronautique d'un coup d'oeil ! - Copyright ORBIFLY Décembre 2007 - Disclaimer

ORBIFLY MET'MAP TEAM :

Programmation & Développement : Alexandra Zaïnal
Conception & Développement : Baudouin d'Aumeries
Co-Programmation & Développement : Marc-Olivier Méhu
Soutien technique & logistique : Manuel Goepfert

Contact : metmap@orbifly.com




SOURCES & CREDITS :

   NOAA